createdAt,value
2023-05-10T00:00:57.319Z,40.70
2023-05-10T00:03:24.211Z,46.60
2023-05-10T00:05:51.114Z,45.83
2023-05-10T00:08:17.706Z,38.63
2023-05-10T00:10:44.276Z,42.28
2023-05-10T00:13:10.975Z,36.17
2023-05-10T00:15:37.548Z,46.40
2023-05-10T00:18:06.616Z,45.05
2023-05-10T00:20:33.190Z,52.72
2023-05-10T00:23:01.212Z,52.22
2023-05-10T00:25:27.909Z,48.73
2023-05-10T00:27:56.460Z,53.92
2023-05-10T00:30:23.275Z,64.20
2023-05-10T00:32:50.978Z,52.30
2023-05-10T00:35:17.714Z,56.22
2023-05-10T00:37:44.427Z,56.80
2023-05-10T00:40:11.310Z,54.63
2023-05-10T00:42:37.755Z,57.58
2023-05-10T00:45:04.754Z,55.53
2023-05-10T00:47:31.427Z,57.08
2023-05-10T00:49:57.926Z,59.30
2023-05-10T00:52:24.762Z,77.38
2023-05-10T00:54:52.784Z,61.38
2023-05-10T00:57:19.276Z,73.95
2023-05-10T00:59:45.893Z,70.10
2023-05-10T01:02:12.847Z,61.37
2023-05-10T01:04:39.865Z,72.70
2023-05-10T01:07:06.740Z,62.65
2023-05-10T01:09:33.806Z,69.72
2023-05-10T01:12:02.057Z,72.85
2023-05-10T01:14:29.408Z,60.47
2023-05-10T01:16:56.005Z,58.25
2023-05-10T01:19:29.865Z,54.13
2023-05-10T01:21:59.410Z,50.92
2023-05-10T01:24:29.517Z,52.90
2023-05-10T01:26:56.216Z,54.03
2023-05-10T01:29:41.322Z,57.67
2023-05-10T01:32:26.909Z,63.35
2023-05-10T01:35:01.823Z,54.58
2023-05-10T01:37:41.857Z,57.45
2023-05-10T01:40:17.089Z,57.13
2023-05-10T01:42:48.575Z,48.60
2023-05-10T01:45:26.949Z,50.03
2023-05-10T01:48:03.782Z,51.08
2023-05-10T01:50:32.924Z,61.50
2023-05-10T01:53:00.601Z,53.17
2023-05-10T01:55:29.681Z,60.55
2023-05-10T01:58:16.431Z,60.25
2023-05-10T02:00:44.800Z,62.80
2023-05-10T02:03:12.868Z,60.13
2023-05-10T02:05:40.198Z,63.77
2023-05-10T02:08:08.155Z,57.95
2023-05-10T02:10:38.080Z,59.22
2023-05-10T02:13:05.138Z,66.00
2023-05-10T02:15:32.327Z,59.45
2023-05-10T02:18:00.052Z,57.27
2023-05-10T02:20:27.469Z,51.78
2023-05-10T02:22:55.720Z,58.53
2023-05-10T02:25:23.021Z,53.70
2023-05-10T02:27:49.938Z,50.00
2023-05-10T02:30:17.885Z,52.67
2023-05-10T02:32:45.245Z,64.25
2023-05-10T02:35:12.962Z,69.85
2023-05-10T02:37:39.970Z,65.35
2023-05-10T02:40:07.502Z,53.72
2023-05-10T02:42:36.499Z,65.57
2023-05-10T02:45:04.508Z,59.78
2023-05-10T02:47:30.944Z,62.72
2023-05-10T02:49:57.760Z,60.63
2023-05-10T02:52:28.741Z,56.80
2023-05-10T02:54:56.604Z,52.73
2023-05-10T02:57:27.715Z,50.80
2023-05-10T02:59:54.267Z,62.17
2023-05-10T03:02:21.558Z,58.97
2023-05-10T03:04:48.413Z,56.60
2023-05-10T03:07:15.093Z,58.10
2023-05-10T03:09:42.160Z,51.05
2023-05-10T03:12:11.909Z,58.92
2023-05-10T03:14:42.601Z,48.35
2023-05-10T03:17:32.376Z,54.67
2023-05-10T03:20:07.536Z,59.03
2023-05-10T03:22:46.737Z,55.22
2023-05-10T03:25:13.705Z,56.70
2023-05-10T03:27:41.369Z,63.58
2023-05-10T03:30:11.173Z,53.40
2023-05-10T03:32:38.123Z,66.57
2023-05-10T03:35:09.397Z,58.10
2023-05-10T03:37:36.276Z,64.07
2023-05-10T03:40:04.288Z,58.55
2023-05-10T03:42:30.728Z,60.63
2023-05-10T03:44:57.353Z,61.33
2023-05-10T03:47:23.919Z,52.75
2023-05-10T03:49:50.473Z,45.00
2023-05-10T03:52:17.450Z,45.55
2023-05-10T03:54:44.010Z,50.08
2023-05-10T03:57:10.751Z,46.63
2023-05-10T03:59:37.331Z,51.78
2023-05-10T04:02:03.956Z,55.65
2023-05-10T04:04:30.717Z,59.08
2023-05-10T04:06:57.476Z,77.93
2023-05-10T04:09:24.666Z,50.00
2023-05-10T04:11:51.071Z,62.00
2023-05-10T04:14:17.951Z,50.80
2023-05-10T04:16:44.506Z,63.83
2023-05-10T04:19:11.487Z,65.30
2023-05-10T04:21:38.107Z,70.37
2023-05-10T04:24:05.188Z,66.85
2023-05-10T04:26:32.650Z,70.05
2023-05-10T04:28:59.148Z,71.88
2023-05-10T04:31:25.832Z,67.30
2023-05-10T04:33:52.566Z,83.27
2023-05-10T04:36:19.388Z,82.50
2023-05-10T04:38:45.978Z,83.47
2023-05-10T04:41:12.551Z,74.28
2023-05-10T04:43:39.674Z,77.18
2023-05-10T04:46:08.000Z,82.17
2023-05-10T04:48:34.655Z,77.97
2023-05-10T04:51:01.508Z,76.63
2023-05-10T04:53:28.372Z,70.30
2023-05-10T04:55:54.794Z,66.07
2023-05-10T04:58:21.550Z,60.57
2023-05-10T05:00:48.294Z,57.40
2023-05-10T05:03:15.030Z,57.13
2023-05-10T05:05:41.729Z,67.75
2023-05-10T05:08:08.278Z,71.18
2023-05-10T05:10:34.874Z,56.37
2023-05-10T05:13:01.636Z,49.10
2023-05-10T05:15:28.619Z,48.10
2023-05-10T05:17:55.166Z,50.80
2023-05-10T05:20:21.832Z,41.08
2023-05-10T05:22:48.539Z,31.80
2023-05-10T05:25:16.547Z,30.63
2023-05-10T05:27:43.028Z,37.25
2023-05-10T05:30:09.775Z,28.77
2023-05-10T05:32:36.915Z,27.23
2023-05-10T05:35:03.853Z,26.57
2023-05-10T05:37:30.601Z,23.55
2023-05-10T05:40:02.289Z,22.85
2023-05-10T05:42:28.933Z,26.02
2023-05-10T05:44:55.555Z,23.15
2023-05-10T05:47:22.748Z,25.07
2023-05-10T05:49:49.660Z,23.70
2023-05-10T05:52:16.973Z,23.58
2023-05-10T05:54:43.626Z,25.15
2023-05-10T05:57:10.372Z,23.45
2023-05-10T05:59:37.566Z,27.50
2023-05-10T06:02:04.271Z,18.55
2023-05-10T06:04:31.717Z,24.80
2023-05-10T06:06:58.366Z,26.67
2023-05-10T06:09:28.154Z,27.13
2023-05-10T06:11:54.735Z,16.93
2023-05-10T06:14:21.740Z,18.90
2023-05-10T06:16:48.437Z,22.15
2023-05-10T06:19:15.162Z,21.83
2023-05-10T06:21:42.298Z,16.10
2023-05-10T06:24:08.946Z,18.80
2023-05-10T06:26:37.504Z,35.45
2023-05-10T06:29:04.343Z,20.33
2023-05-10T06:31:31.269Z,20.52
2023-05-10T06:33:58.840Z,24.52
2023-05-10T06:36:27.645Z,19.37
2023-05-10T06:38:54.553Z,18.15
2023-05-10T06:41:23.986Z,21.42
2023-05-10T06:43:51.966Z,25.92
2023-05-10T06:46:19.773Z,20.15
2023-05-10T06:48:47.014Z,18.33
2023-05-10T06:51:14.033Z,20.48
2023-05-10T06:53:41.005Z,21.40
2023-05-10T06:56:08.418Z,20.73
2023-05-10T06:58:35.178Z,18.05
2023-05-10T07:01:06.266Z,23.90
2023-05-10T07:03:33.362Z,23.25
2023-05-10T07:06:04.520Z,23.05
2023-05-10T07:08:31.842Z,27.13
2023-05-10T07:11:05.478Z,25.35
2023-05-10T07:13:33.095Z,22.27
2023-05-10T07:16:00.498Z,21.83
2023-05-10T07:18:27.878Z,20.58
2023-05-10T07:20:54.407Z,18.58
2023-05-10T07:23:21.329Z,21.00
2023-05-10T07:25:48.797Z,21.33
2023-05-10T07:28:16.204Z,24.73
2023-05-10T07:30:43.252Z,21.00
2023-05-10T07:33:10.657Z,23.17
2023-05-10T07:35:37.403Z,15.48
2023-05-10T07:38:04.098Z,18.97
2023-05-10T07:40:31.357Z,19.15
2023-05-10T07:42:57.966Z,20.80
2023-05-10T07:45:25.029Z,21.02
2023-05-10T07:47:51.905Z,19.42
2023-05-10T07:50:18.606Z,17.83
2023-05-10T07:52:45.445Z,22.05
2023-05-10T07:55:12.829Z,21.40
2023-05-10T07:57:39.421Z,16.90
2023-05-10T08:00:06.608Z,17.52
2023-05-10T08:02:33.788Z,16.10
2023-05-10T08:05:00.572Z,15.77
2023-05-10T08:07:27.214Z,15.20
2023-05-10T08:09:53.774Z,16.85
2023-05-10T08:12:20.506Z,15.77
2023-05-10T08:14:47.408Z,16.77
2023-05-10T08:17:14.070Z,16.25
2023-05-10T08:19:40.759Z,19.38
2023-05-10T08:22:07.552Z,17.98
2023-05-10T08:24:35.900Z,23.83
2023-05-10T08:27:02.460Z,15.87
2023-05-10T08:29:32.735Z,13.85
2023-05-10T08:32:02.483Z,16.60
2023-05-10T08:34:28.975Z,12.93
2023-05-10T08:36:55.642Z,14.23
2023-05-10T08:39:29.745Z,17.37
2023-05-10T08:42:01.723Z,12.15
2023-05-10T08:44:29.032Z,15.23
2023-05-10T08:46:56.246Z,11.73
2023-05-10T08:49:22.868Z,13.55
2023-05-10T08:51:52.116Z,13.00
2023-05-10T08:54:18.702Z,15.57
2023-05-10T08:56:45.203Z,11.55
2023-05-10T08:59:13.384Z,12.07
2023-05-10T09:01:40.049Z,11.15
2023-05-10T09:04:06.896Z,13.17
2023-05-10T09:06:34.216Z,13.80
2023-05-10T09:09:01.011Z,20.38
2023-05-10T09:11:30.037Z,14.50
2023-05-10T09:13:57.144Z,13.23
2023-05-10T09:16:24.533Z,15.73
2023-05-10T09:18:51.296Z,11.25
2023-05-10T09:21:18.162Z,14.38
2023-05-10T09:23:48.932Z,11.48
2023-05-10T09:26:15.513Z,11.35
2023-05-10T09:28:55.596Z,11.27
2023-05-10T09:31:22.745Z,8.93
2023-05-10T09:33:50.423Z,10.38
2023-05-10T09:36:17.278Z,12.85
2023-05-10T09:38:53.607Z,9.80
2023-05-10T09:41:21.752Z,15.17
2023-05-10T09:43:49.923Z,10.32
2023-05-10T09:46:17.114Z,11.00
2023-05-10T09:48:45.053Z,14.00
2023-05-10T09:51:11.942Z,8.52
2023-05-10T09:53:38.572Z,10.27
2023-05-10T09:56:05.079Z,8.15
2023-05-10T09:58:31.658Z,7.80
2023-05-10T10:00:58.552Z,7.28
2023-05-10T10:03:25.649Z,13.32
2023-05-10T10:05:52.424Z,10.50
2023-05-10T10:08:19.186Z,10.45
2023-05-10T10:10:47.229Z,10.73
2023-05-10T10:13:14.176Z,8.73
2023-05-10T10:15:41.076Z,8.60
2023-05-10T10:18:07.765Z,10.83
2023-05-10T10:20:34.597Z,8.32
2023-05-10T10:23:01.304Z,10.63
2023-05-10T10:25:27.881Z,12.45
2023-05-10T10:27:54.409Z,9.32
2023-05-10T10:30:20.946Z,15.00
2023-05-10T10:33:16.597Z,12.15
2023-05-10T10:35:53.535Z,13.15
2023-05-10T10:38:20.277Z,10.75
2023-05-10T10:40:46.905Z,9.88
2023-05-10T10:43:22.631Z,11.67
2023-05-10T10:46:09.041Z,14.57
2023-05-10T10:48:35.572Z,11.70
2023-05-10T10:51:02.131Z,9.23
2023-05-10T10:53:31.773Z,10.75
2023-05-10T10:56:10.393Z,10.60
2023-05-10T10:58:38.147Z,10.02
2023-05-10T11:01:18.234Z,11.13
2023-05-10T11:04:00.029Z,12.32
2023-05-10T11:06:30.422Z,11.80
2023-05-10T11:08:57.079Z,13.30
2023-05-10T11:11:23.599Z,11.25
2023-05-10T11:13:51.461Z,12.93
2023-05-10T11:16:25.750Z,10.30
2023-05-10T11:19:02.971Z,12.27
2023-05-10T11:21:31.628Z,10.87
2023-05-10T11:23:58.779Z,11.68
2023-05-10T11:26:27.354Z,10.73
2023-05-10T11:28:56.540Z,13.93
2023-05-10T11:31:23.471Z,12.23
2023-05-10T11:33:51.570Z,11.20
2023-05-10T11:36:22.721Z,10.93
2023-05-10T11:38:49.795Z,11.45
2023-05-10T11:41:17.841Z,9.88
2023-05-10T11:43:46.554Z,9.98
2023-05-10T11:46:13.873Z,9.37
2023-05-10T11:48:41.143Z,7.22
2023-05-10T11:51:08.570Z,9.63
2023-05-10T11:53:35.294Z,9.23
2023-05-10T11:56:11.228Z,8.57
2023-05-10T11:58:38.260Z,15.43
2023-05-10T12:01:07.657Z,9.63
2023-05-10T12:03:35.265Z,11.90
2023-05-10T12:06:03.132Z,8.77
2023-05-10T12:08:30.709Z,11.30
2023-05-10T12:11:07.807Z,12.53
2023-05-10T12:13:39.132Z,9.82
2023-05-10T12:16:15.233Z,13.23
2023-05-10T12:18:43.003Z,15.57
2023-05-10T12:21:11.750Z,15.38
2023-05-10T12:23:39.004Z,11.00
2023-05-10T12:26:06.266Z,13.68
2023-05-10T12:28:42.797Z,11.57
2023-05-10T12:31:09.881Z,10.73
2023-05-10T12:33:40.098Z,10.18
2023-05-10T12:36:07.320Z,10.43
2023-05-10T12:38:35.033Z,10.98
2023-05-10T12:41:02.604Z,10.13
2023-05-10T12:43:29.246Z,10.35
2023-05-10T12:45:56.253Z,11.23
2023-05-10T12:48:22.975Z,9.17
2023-05-10T12:50:49.908Z,10.60
2023-05-10T12:53:17.219Z,10.32
2023-05-10T12:55:44.377Z,13.60
2023-05-10T12:58:12.353Z,13.98
2023-05-10T13:00:40.629Z,13.70
2023-05-10T13:03:07.199Z,9.38
2023-05-10T13:05:34.135Z,8.60
2023-05-10T13:08:00.560Z,9.57
2023-05-10T13:10:27.293Z,9.20
2023-05-10T13:12:53.841Z,7.60
2023-05-10T13:15:20.647Z,10.05
2023-05-10T13:17:47.280Z,9.88
2023-05-10T13:20:14.029Z,13.02
2023-05-10T13:22:40.901Z,9.00
2023-05-10T13:25:07.973Z,10.17
2023-05-10T13:27:34.630Z,9.48
2023-05-10T13:30:02.620Z,10.52
2023-05-10T13:32:29.410Z,11.48
2023-05-10T13:34:56.132Z,12.18
2023-05-10T13:37:22.878Z,13.63
2023-05-10T13:39:49.710Z,9.73
2023-05-10T13:42:16.535Z,9.55
2023-05-10T13:44:43.103Z,12.70
2023-05-10T13:47:09.790Z,11.85
2023-05-10T13:49:36.364Z,10.63
2023-05-10T13:52:08.180Z,11.77
2023-05-10T13:54:38.321Z,9.98
2023-05-10T13:57:05.509Z,12.65
2023-05-10T13:59:35.066Z,12.75
2023-05-10T14:02:05.089Z,12.70
2023-05-10T14:04:31.869Z,9.98
2023-05-10T14:06:58.386Z,9.70
2023-05-10T14:09:25.087Z,14.05
2023-05-10T14:11:51.515Z,13.20
2023-05-10T14:14:18.517Z,12.43
2023-05-10T14:16:45.904Z,12.98
2023-05-10T14:19:12.458Z,16.42
2023-05-10T14:21:39.130Z,20.63
2023-05-10T14:24:05.976Z,19.60
2023-05-10T14:26:32.890Z,12.40
2023-05-10T14:29:00.111Z,11.82
2023-05-10T14:31:28.002Z,14.05
2023-05-10T14:33:54.783Z,15.20
2023-05-10T14:36:21.949Z,16.38
2023-05-10T14:38:48.500Z,17.40
2023-05-10T14:41:18.895Z,14.52
2023-05-10T14:43:45.771Z,16.35
2023-05-10T14:46:15.112Z,13.48
2023-05-10T14:48:42.694Z,14.43
2023-05-10T14:51:09.320Z,11.07
2023-05-10T14:53:36.090Z,11.00
2023-05-10T14:56:04.199Z,12.40
2023-05-10T14:58:34.004Z,12.93
2023-05-10T15:01:01.210Z,12.05
2023-05-10T15:03:28.398Z,14.97
2023-05-10T15:05:57.227Z,10.77
2023-05-10T15:08:25.669Z,16.45
2023-05-10T15:10:52.562Z,39.78
2023-05-10T15:13:19.307Z,31.40
2023-05-10T15:15:45.833Z,26.30
2023-05-10T15:18:12.874Z,26.38
2023-05-10T15:20:39.385Z,26.42
2023-05-10T15:23:05.832Z,20.60
2023-05-10T15:25:35.364Z,22.85
2023-05-10T15:28:03.002Z,19.80
2023-05-10T15:30:30.143Z,21.45
2023-05-10T15:32:57.225Z,27.08
2023-05-10T15:35:27.272Z,23.85
2023-05-10T15:37:53.957Z,30.73
2023-05-10T15:40:20.713Z,22.27
2023-05-10T15:42:47.185Z,22.90
2023-05-10T15:45:14.109Z,23.95
2023-05-10T15:47:40.719Z,20.67
2023-05-10T15:50:08.525Z,19.15
2023-05-10T15:52:35.190Z,21.20
2023-05-10T15:55:01.651Z,21.70
2023-05-10T15:57:28.331Z,17.67
2023-05-10T15:59:55.049Z,14.07
2023-05-10T16:02:22.829Z,14.40
2023-05-10T16:04:49.636Z,14.13
2023-05-10T16:07:16.317Z,16.50
2023-05-10T16:09:43.190Z,25.40
2023-05-10T16:12:10.074Z,13.65
2023-05-10T16:14:36.821Z,13.60
2023-05-10T16:17:05.219Z,16.13
2023-05-10T16:19:32.082Z,14.80
2023-05-10T16:21:58.794Z,14.80
2023-05-10T16:24:25.991Z,11.68
2023-05-10T16:26:53.076Z,11.75
2023-05-10T16:29:19.803Z,11.40
2023-05-10T16:31:46.579Z,14.18
2023-05-10T16:34:13.218Z,17.60
2023-05-10T16:36:39.958Z,15.02
2023-05-10T16:39:06.876Z,14.50
2023-05-10T16:41:34.574Z,15.97
2023-05-10T16:44:01.530Z,12.57
2023-05-10T16:46:28.141Z,15.57
2023-05-10T16:48:54.953Z,17.50
2023-05-10T16:51:21.614Z,18.20
2023-05-10T16:53:48.259Z,15.70
2023-05-10T16:56:14.917Z,15.52
2023-05-10T16:58:41.596Z,23.25
2023-05-10T17:01:08.294Z,16.10
2023-05-10T17:03:35.128Z,15.02
2023-05-10T17:06:01.935Z,15.00
2023-05-10T17:08:28.563Z,17.85
2023-05-10T17:10:56.339Z,23.80
2023-05-10T17:13:22.790Z,18.83
2023-05-10T17:15:49.691Z,19.45
2023-05-10T17:18:16.598Z,19.73
2023-05-10T17:20:43.679Z,19.05
2023-05-10T17:23:10.158Z,18.45
2023-05-10T17:25:37.190Z,20.60
2023-05-10T17:28:04.013Z,21.83
2023-05-10T17:30:32.746Z,21.23
2023-05-10T17:33:00.147Z,20.27
2023-05-10T17:35:26.872Z,26.35
2023-05-10T17:37:53.691Z,17.70
2023-05-10T17:40:20.388Z,22.88
2023-05-10T17:42:46.998Z,22.73
2023-05-10T17:45:13.660Z,27.98
2023-05-10T17:47:40.454Z,16.83
2023-05-10T17:50:07.471Z,18.70
2023-05-10T17:52:34.158Z,20.15
2023-05-10T17:55:00.925Z,18.73
2023-05-10T17:57:27.357Z,21.08
2023-05-10T17:59:53.823Z,27.88
2023-05-10T18:02:20.743Z,21.88
2023-05-10T18:04:49.526Z,20.77
2023-05-10T18:07:16.837Z,23.10
2023-05-10T18:09:43.418Z,20.92
2023-05-10T18:12:10.014Z,25.98
2023-05-10T18:14:41.128Z,23.45
2023-05-10T18:17:08.913Z,29.85
2023-05-10T18:19:35.575Z,24.60
2023-05-10T18:22:02.201Z,25.73
2023-05-10T18:24:40.176Z,24.20
2023-05-10T18:27:07.966Z,25.30
2023-05-10T18:29:34.825Z,21.30
2023-05-10T18:32:01.473Z,23.33
2023-05-10T18:34:28.422Z,25.13
2023-05-10T18:36:54.941Z,25.73
2023-05-10T18:39:21.940Z,28.73
2023-05-10T18:41:49.321Z,28.38
2023-05-10T18:44:15.982Z,22.97
2023-05-10T18:46:42.636Z,22.33
2023-05-10T18:49:09.296Z,28.40
2023-05-10T18:51:36.195Z,22.92
2023-05-10T18:54:02.915Z,25.77
2023-05-10T18:56:29.366Z,21.10
2023-05-10T18:58:56.039Z,23.88
2023-05-10T19:01:22.502Z,23.05
2023-05-10T19:03:48.955Z,20.65
2023-05-10T19:06:15.540Z,24.77
2023-05-10T19:08:42.060Z,23.17
2023-05-10T19:11:09.270Z,20.08
2023-05-10T19:13:35.774Z,30.90
2023-05-10T19:16:05.199Z,19.83
2023-05-10T19:18:34.341Z,25.85
2023-05-10T19:21:05.088Z,26.10
2023-05-10T19:23:32.187Z,27.70
2023-05-10T19:26:00.785Z,24.55
2023-05-10T19:28:27.606Z,24.63
2023-05-10T19:30:54.720Z,30.10
2023-05-10T19:33:22.402Z,28.33
2023-05-10T19:35:52.260Z,30.80
2023-05-10T19:38:25.639Z,30.40
2023-05-10T19:40:58.089Z,32.55
2023-05-10T19:43:28.891Z,34.28
2023-05-10T19:45:59.018Z,33.17
2023-05-10T19:48:26.016Z,34.85
2023-05-10T19:50:59.723Z,34.83
2023-05-10T19:53:26.438Z,32.58
2023-05-10T19:55:52.869Z,30.38
2023-05-10T19:58:19.968Z,36.13
2023-05-10T20:00:46.590Z,36.22
2023-05-10T20:03:13.369Z,28.92
2023-05-10T20:05:40.349Z,34.40
2023-05-10T20:08:06.983Z,36.13
2023-05-10T20:10:33.528Z,35.40
2023-05-10T20:13:00.767Z,32.88
2023-05-10T20:15:28.959Z,38.33
2023-05-10T20:17:55.828Z,35.13
2023-05-10T20:20:22.690Z,32.13
2023-05-10T20:22:49.786Z,34.97
2023-05-10T20:25:17.034Z,39.35
2023-05-10T20:27:43.890Z,33.85
2023-05-10T20:30:10.809Z,34.83
2023-05-10T20:32:37.908Z,32.25
2023-05-10T20:35:04.819Z,33.00
2023-05-10T20:37:31.558Z,36.88
2023-05-10T20:39:58.206Z,35.45
2023-05-10T20:42:24.754Z,34.40
2023-05-10T20:44:51.748Z,36.75
2023-05-10T20:47:18.389Z,36.17
2023-05-10T20:49:44.927Z,37.17
2023-05-10T20:52:11.453Z,47.50
2023-05-10T20:54:38.257Z,41.03
2023-05-10T20:57:04.895Z,32.40
2023-05-10T20:59:31.375Z,43.77
2023-05-10T21:01:58.129Z,45.17
2023-05-10T21:04:25.840Z,41.63
2023-05-10T21:06:53.123Z,42.67
2023-05-10T21:09:19.643Z,41.00
2023-05-10T21:11:46.401Z,36.87
2023-05-10T21:14:12.966Z,41.55
2023-05-10T21:16:39.673Z,42.80
2023-05-10T21:19:07.722Z,39.30
2023-05-10T21:21:34.551Z,38.53
2023-05-10T21:24:01.190Z,33.37
2023-05-10T21:26:27.686Z,42.65
2023-05-10T21:28:54.431Z,37.47
2023-05-10T21:31:21.070Z,46.22
2023-05-10T21:33:47.833Z,43.38
2023-05-10T21:36:14.477Z,41.07
2023-05-10T21:38:42.411Z,41.30
2023-05-10T21:41:08.985Z,39.35
2023-05-10T21:43:35.489Z,38.05
2023-05-10T21:46:02.086Z,49.10
2023-05-10T21:48:29.051Z,49.23
2023-05-10T21:50:55.812Z,46.75
2023-05-10T21:53:22.862Z,43.30
2023-05-10T21:55:49.717Z,36.63
2023-05-10T21:58:16.318Z,46.35
2023-05-10T22:00:43.482Z,43.00
2023-05-10T22:03:10.022Z,46.50
2023-05-10T22:05:36.564Z,51.42
2023-05-10T22:08:03.027Z,41.40
2023-05-10T22:10:29.639Z,45.47
2023-05-10T22:12:56.454Z,42.60
2023-05-10T22:15:23.319Z,42.03
2023-05-10T22:17:49.741Z,45.10
2023-05-10T22:20:16.545Z,42.25
2023-05-10T22:22:43.810Z,40.80
2023-05-10T22:25:10.734Z,37.70
2023-05-10T22:27:37.822Z,50.15
2023-05-10T22:30:04.574Z,43.33
2023-05-10T22:32:31.613Z,45.63
2023-05-10T22:34:58.223Z,37.67
2023-05-10T22:37:24.772Z,37.03
2023-05-10T22:39:51.411Z,43.03
2023-05-10T22:42:17.879Z,37.00
2023-05-10T22:44:44.486Z,41.85
2023-05-10T22:47:11.221Z,39.00
2023-05-10T22:49:38.223Z,37.40
2023-05-10T22:52:04.670Z,43.53
2023-05-10T22:54:31.156Z,44.38
2023-05-10T22:56:57.670Z,36.60
2023-05-10T22:59:24.158Z,43.22
2023-05-10T23:01:51.180Z,39.47
2023-05-10T23:04:18.875Z,46.80
2023-05-10T23:06:46.684Z,44.63
2023-05-10T23:09:13.173Z,36.53
2023-05-10T23:11:39.787Z,45.67
2023-05-10T23:14:06.606Z,43.70
2023-05-10T23:16:33.326Z,42.60
2023-05-10T23:19:00.017Z,46.05
2023-05-10T23:21:26.709Z,42.22
2023-05-10T23:23:53.635Z,44.20
2023-05-10T23:26:20.086Z,42.63
2023-05-10T23:28:47.006Z,43.38
2023-05-10T23:31:13.436Z,41.22
2023-05-10T23:33:39.982Z,42.97
2023-05-10T23:36:06.629Z,37.55
2023-05-10T23:38:33.186Z,41.87
2023-05-10T23:40:59.655Z,43.35
2023-05-10T23:43:26.494Z,45.38
2023-05-10T23:45:55.867Z,54.05
2023-05-10T23:48:22.678Z,46.88
2023-05-10T23:50:49.306Z,38.43
2023-05-10T23:53:16.667Z,37.47
2023-05-10T23:55:43.136Z,42.35
2023-05-10T23:58:10.246Z,47.58
